sensor_id;sensor_type;location;lat;lon;timestamp;P1;durP1;ratioP1;P2;durP2;ratioP2
11829;SDS011;5972;42.134;24.718;2022-11-15T00:01:29;40.10;;;26.30;;
11829;SDS011;5972;42.134;24.718;2022-11-15T00:03:55;36.00;;;25.80;;
11829;SDS011;5972;42.134;24.718;2022-11-15T00:06:22;36.30;;;26.63;;
11829;SDS011;5972;42.134;24.718;2022-11-15T00:08:49;38.47;;;26.63;;
11829;SDS011;5972;42.134;24.718;2022-11-15T00:11:17;35.43;;;25.97;;
11829;SDS011;5972;42.134;24.718;2022-11-15T00:13:44;39.67;;;25.27;;
11829;SDS011;5972;42.134;24.718;2022-11-15T00:16:11;34.90;;;24.37;;
11829;SDS011;5972;42.134;24.718;2022-11-15T00:18:52;36.70;;;24.33;;
11829;SDS011;5972;42.134;24.718;2022-11-15T00:21:19;33.63;;;23.10;;
11829;SDS011;5972;42.134;24.718;2022-11-15T00:23:46;30.93;;;22.97;;
11829;SDS011;5972;42.134;24.718;2022-11-15T00:26:14;34.73;;;23.13;;
11829;SDS011;5972;42.134;24.718;2022-11-15T00:28:42;35.30;;;24.20;;
11829;SDS011;5972;42.134;24.718;2022-11-15T00:31:11;31.13;;;22.73;;
11829;SDS011;5972;42.134;24.718;2022-11-15T00:33:39;32.70;;;22.63;;
11829;SDS011;5972;42.134;24.718;2022-11-15T00:36:08;32.80;;;22.50;;
11829;SDS011;5972;42.134;24.718;2022-11-15T00:38:37;34.80;;;23.73;;
11829;SDS011;5972;42.134;24.718;2022-11-15T00:41:05;29.27;;;22.17;;
11829;SDS011;5972;42.134;24.718;2022-11-15T00:43:33;34.00;;;23.00;;
11829;SDS011;5972;42.134;24.718;2022-11-15T00:46:01;34.03;;;21.83;;
11829;SDS011;5972;42.134;24.718;2022-11-15T00:48:28;32.30;;;22.40;;
11829;SDS011;5972;42.134;24.718;2022-11-15T00:50:56;37.07;;;21.83;;
11829;SDS011;5972;42.134;24.718;2022-11-15T00:53:23;32.67;;;22.20;;
11829;SDS011;5972;42.134;24.718;2022-11-15T00:55:50;42.40;;;29.97;;
11829;SDS011;5972;42.134;24.718;2022-11-15T00:58:17;43.57;;;27.27;;
11829;SDS011;5972;42.134;24.718;2022-11-15T01:00:43;34.87;;;23.97;;
11829;SDS011;5972;42.134;24.718;2022-11-15T01:03:12;35.00;;;24.03;;
11829;SDS011;5972;42.134;24.718;2022-11-15T01:05:38;34.43;;;23.20;;
11829;SDS011;5972;42.134;24.718;2022-11-15T01:08:05;39.30;;;23.13;;
11829;SDS011;5972;42.134;24.718;2022-11-15T01:10:32;36.77;;;22.40;;
11829;SDS011;5972;42.134;24.718;2022-11-15T01:12:59;30.63;;;21.77;;
11829;SDS011;5972;42.134;24.718;2022-11-15T01:15:25;30.63;;;22.43;;
11829;SDS011;5972;42.134;24.718;2022-11-15T01:17:52;29.10;;;21.30;;
11829;SDS011;5972;42.134;24.718;2022-11-15T01:20:21;29.80;;;21.33;;
11829;SDS011;5972;42.134;24.718;2022-11-15T01:22:48;31.40;;;21.30;;
11829;SDS011;5972;42.134;24.718;2022-11-15T01:25:14;26.20;;;19.80;;
11829;SDS011;5972;42.134;24.718;2022-11-15T01:27:41;29.53;;;20.40;;
11829;SDS011;5972;42.134;24.718;2022-11-15T01:30:08;30.30;;;20.53;;
11829;SDS011;5972;42.134;24.718;2022-11-15T01:32:35;28.40;;;19.83;;
11829;SDS011;5972;42.134;24.718;2022-11-15T01:35:02;29.47;;;19.90;;
11829;SDS011;5972;42.134;24.718;2022-11-15T01:37:31;28.37;;;19.80;;
11829;SDS011;5972;42.134;24.718;2022-11-15T01:39:58;29.10;;;20.77;;
11829;SDS011;5972;42.134;24.718;2022-11-15T01:42:24;27.70;;;20.67;;
11829;SDS011;5972;42.134;24.718;2022-11-15T01:44:51;29.50;;;20.40;;
11829;SDS011;5972;42.134;24.718;2022-11-15T01:47:20;27.20;;;20.20;;
11829;SDS011;5972;42.134;24.718;2022-11-15T01:49:53;30.80;;;21.63;;
11829;SDS011;5972;42.134;24.718;2022-11-15T01:52:25;29.67;;;20.73;;
11829;SDS011;5972;42.134;24.718;2022-11-15T01:54:56;30.67;;;21.17;;
11829;SDS011;5972;42.134;24.718;2022-11-15T01:57:27;29.70;;;20.07;;
11829;SDS011;5972;42.134;24.718;2022-11-15T01:59:54;27.13;;;19.27;;
11829;SDS011;5972;42.134;24.718;2022-11-15T02:02:22;29.27;;;20.27;;
11829;SDS011;5972;42.134;24.718;2022-11-15T02:04:48;29.23;;;20.27;;
11829;SDS011;5972;42.134;24.718;2022-11-15T02:07:16;27.03;;;20.33;;
11829;SDS011;5972;42.134;24.718;2022-11-15T02:09:45;30.93;;;21.07;;
11829;SDS011;5972;42.134;24.718;2022-11-15T02:12:15;27.30;;;19.87;;
11829;SDS011;5972;42.134;24.718;2022-11-15T02:14:46;28.43;;;19.57;;
11829;SDS011;5972;42.134;24.718;2022-11-15T02:17:20;30.83;;;20.70;;
11829;SDS011;5972;42.134;24.718;2022-11-15T02:23:03;30.43;;;20.33;;
11829;SDS011;5972;42.134;24.718;2022-11-15T02:25:45;30.00;;;19.73;;
11829;SDS011;5972;42.134;24.718;2022-11-15T02:28:32;30.00;;;19.40;;
11829;SDS011;5972;42.134;24.718;2022-11-15T02:31:13;30.33;;;19.80;;
11829;SDS011;5972;42.134;24.718;2022-11-15T02:33:47;27.47;;;19.77;;
11829;SDS011;5972;42.134;24.718;2022-11-15T02:36:26;26.40;;;19.37;;
11829;SDS011;5972;42.134;24.718;2022-11-15T02:39:03;30.30;;;19.07;;
11829;SDS011;5972;42.134;24.718;2022-11-15T02:41:38;30.47;;;19.97;;
11829;SDS011;5972;42.134;24.718;2022-11-15T02:44:12;30.13;;;19.80;;
11829;SDS011;5972;42.134;24.718;2022-11-15T02:46:43;29.70;;;18.87;;
11829;SDS011;5972;42.134;24.718;2022-11-15T02:49:32;26.70;;;19.30;;
11829;SDS011;5972;42.134;24.718;2022-11-15T02:52:00;28.73;;;18.87;;
11829;SDS011;5972;42.134;24.718;2022-11-15T02:54:28;27.97;;;19.53;;
11829;SDS011;5972;42.134;24.718;2022-11-15T02:56:58;28.30;;;19.70;;
11829;SDS011;5972;42.134;24.718;2022-11-15T02:59:36;31.63;;;19.40;;
11829;SDS011;5972;42.134;24.718;2022-11-15T03:02:33;25.23;;;19.23;;
11829;SDS011;5972;42.134;24.718;2022-11-15T03:05:12;27.10;;;19.43;;
11829;SDS011;5972;42.134;24.718;2022-11-15T03:07:47;28.20;;;20.03;;
11829;SDS011;5972;42.134;24.718;2022-11-15T03:10:22;28.73;;;20.00;;
11829;SDS011;5972;42.134;24.718;2022-11-15T03:12:57;29.73;;;19.20;;
11829;SDS011;5972;42.134;24.718;2022-11-15T03:15:35;27.47;;;19.97;;
11829;SDS011;5972;42.134;24.718;2022-11-15T03:18:07;27.70;;;19.97;;
11829;SDS011;5972;42.134;24.718;2022-11-15T03:20:38;27.57;;;19.53;;
11829;SDS011;5972;42.134;24.718;2022-11-15T03:23:06;26.10;;;18.97;;
11829;SDS011;5972;42.134;24.718;2022-11-15T03:25:36;25.70;;;19.20;;
11829;SDS011;5972;42.134;24.718;2022-11-15T03:28:07;29.37;;;19.30;;
11829;SDS011;5972;42.134;24.718;2022-11-15T03:30:38;27.33;;;19.37;;
11829;SDS011;5972;42.134;24.718;2022-11-15T03:33:08;26.83;;;18.90;;
11829;SDS011;5972;42.134;24.718;2022-11-15T03:35:37;26.73;;;19.37;;
11829;SDS011;5972;42.134;24.718;2022-11-15T03:38:08;33.37;;;19.50;;
11829;SDS011;5972;42.134;24.718;2022-11-15T03:40:47;31.03;;;21.40;;
11829;SDS011;5972;42.134;24.718;2022-11-15T03:43:22;48.57;;;29.73;;
11829;SDS011;5972;42.134;24.718;2022-11-15T03:45:56;30.50;;;21.73;;
11829;SDS011;5972;42.134;24.718;2022-11-15T03:48:29;27.60;;;19.27;;
11829;SDS011;5972;42.134;24.718;2022-11-15T03:51:00;27.30;;;19.30;;
11829;SDS011;5972;42.134;24.718;2022-11-15T03:53:28;27.63;;;18.80;;
11829;SDS011;5972;42.134;24.718;2022-11-15T03:55:56;24.23;;;19.07;;
11829;SDS011;5972;42.134;24.718;2022-11-15T03:58:23;26.73;;;18.97;;
11829;SDS011;5972;42.134;24.718;2022-11-15T04:00:50;26.43;;;18.57;;
11829;SDS011;5972;42.134;24.718;2022-11-15T04:03:17;26.20;;;19.20;;
11829;SDS011;5972;42.134;24.718;2022-11-15T04:05:45;29.33;;;19.27;;
11829;SDS011;5972;42.134;24.718;2022-11-15T04:08:12;26.87;;;18.80;;
11829;SDS011;5972;42.134;24.718;2022-11-15T04:10:38;27.17;;;19.70;;
11829;SDS011;5972;42.134;24.718;2022-11-15T04:13:05;27.53;;;19.00;;
11829;SDS011;5972;42.134;24.718;2022-11-15T04:15:32;23.57;;;17.60;;
11829;SDS011;5972;42.134;24.718;2022-11-15T04:17:59;27.00;;;19.50;;
11829;SDS011;5972;42.134;24.718;2022-11-15T04:20:26;27.13;;;18.30;;
11829;SDS011;5972;42.134;24.718;2022-11-15T04:23:13;25.73;;;18.60;;
11829;SDS011;5972;42.134;24.718;2022-11-15T04:26:00;26.37;;;18.97;;
11829;SDS011;5972;42.134;24.718;2022-11-15T04:28:28;25.47;;;19.03;;
11829;SDS011;5972;42.134;24.718;2022-11-15T04:30:55;28.97;;;19.97;;
11829;SDS011;5972;42.134;24.718;2022-11-15T04:33:22;26.20;;;18.63;;
11829;SDS011;5972;42.134;24.718;2022-11-15T04:35:49;25.40;;;18.17;;
11829;SDS011;5972;42.134;24.718;2022-11-15T04:38:31;30.43;;;19.60;;
11829;SDS011;5972;42.134;24.718;2022-11-15T04:40:57;24.57;;;18.23;;
11829;SDS011;5972;42.134;24.718;2022-11-15T04:43:24;25.13;;;18.30;;
11829;SDS011;5972;42.134;24.718;2022-11-15T04:45:51;29.03;;;17.70;;
11829;SDS011;5972;42.134;24.718;2022-11-15T04:48:18;29.50;;;18.43;;
11829;SDS011;5972;42.134;24.718;2022-11-15T04:50:46;30.70;;;19.43;;
11829;SDS011;5972;42.134;24.718;2022-11-15T04:53:13;25.97;;;18.00;;
11829;SDS011;5972;42.134;24.718;2022-11-15T04:55:45;25.40;;;18.27;;
11829;SDS011;5972;42.134;24.718;2022-11-15T04:58:11;27.43;;;18.40;;
11829;SDS011;5972;42.134;24.718;2022-11-15T05:00:38;25.60;;;18.03;;
11829;SDS011;5972;42.134;24.718;2022-11-15T05:03:05;26.47;;;18.00;;
11829;SDS011;5972;42.134;24.718;2022-11-15T05:05:50;24.27;;;18.07;;
11829;SDS011;5972;42.134;24.718;2022-11-15T05:08:17;25.13;;;16.63;;
11829;SDS011;5972;42.134;24.718;2022-11-15T05:10:45;28.50;;;17.10;;
11829;SDS011;5972;42.134;24.718;2022-11-15T05:13:11;28.00;;;17.40;;
11829;SDS011;5972;42.134;24.718;2022-11-15T05:15:38;27.67;;;17.57;;
11829;SDS011;5972;42.134;24.718;2022-11-15T05:18:05;25.47;;;17.87;;
11829;SDS011;5972;42.134;24.718;2022-11-15T05:20:32;26.17;;;17.90;;
11829;SDS011;5972;42.134;24.718;2022-11-15T05:22:59;25.73;;;17.93;;
11829;SDS011;5972;42.134;24.718;2022-11-15T05:25:25;26.10;;;16.87;;
11829;SDS011;5972;42.134;24.718;2022-11-15T05:27:54;27.40;;;17.30;;
11829;SDS011;5972;42.134;24.718;2022-11-15T05:30:21;26.33;;;16.80;;
11829;SDS011;5972;42.134;24.718;2022-11-15T05:32:48;26.40;;;17.67;;
11829;SDS011;5972;42.134;24.718;2022-11-15T05:35:17;26.57;;;17.77;;
11829;SDS011;5972;42.134;24.718;2022-11-15T05:37:47;24.90;;;17.73;;
11829;SDS011;5972;42.134;24.718;2022-11-15T05:40:15;26.20;;;18.03;;
11829;SDS011;5972;42.134;24.718;2022-11-15T05:42:42;25.03;;;18.10;;
11829;SDS011;5972;42.134;24.718;2022-11-15T05:45:10;28.50;;;17.53;;
11829;SDS011;5972;42.134;24.718;2022-11-15T05:47:37;27.40;;;18.30;;
11829;SDS011;5972;42.134;24.718;2022-11-15T05:50:05;26.93;;;18.47;;
11829;SDS011;5972;42.134;24.718;2022-11-15T05:52:33;33.13;;;19.03;;
11829;SDS011;5972;42.134;24.718;2022-11-15T05:55:02;30.13;;;16.83;;
11829;SDS011;5972;42.134;24.718;2022-11-15T05:57:31;34.03;;;17.90;;
11829;SDS011;5972;42.134;24.718;2022-11-15T05:59:58;26.60;;;16.27;;
11829;SDS011;5972;42.134;24.718;2022-11-15T06:02:26;29.47;;;17.33;;
11829;SDS011;5972;42.134;24.718;2022-11-15T06:04:53;26.97;;;17.50;;
11829;SDS011;5972;42.134;24.718;2022-11-15T06:07:19;28.47;;;16.93;;
11829;SDS011;5972;42.134;24.718;2022-11-15T06:09:46;28.17;;;16.63;;
11829;SDS011;5972;42.134;24.718;2022-11-15T06:12:13;24.83;;;17.03;;
11829;SDS011;5972;42.134;24.718;2022-11-15T06:14:40;27.07;;;16.50;;
11829;SDS011;5972;42.134;24.718;2022-11-15T06:17:06;26.30;;;16.07;;
11829;SDS011;5972;42.134;24.718;2022-11-15T06:19:35;28.47;;;15.57;;
11829;SDS011;5972;42.134;24.718;2022-11-15T06:22:01;34.40;;;16.63;;
11829;SDS011;5972;42.134;24.718;2022-11-15T06:24:28;26.30;;;15.20;;
11829;SDS011;5972;42.134;24.718;2022-11-15T06:26:55;33.43;;;16.20;;
11829;SDS011;5972;42.134;24.718;2022-11-15T06:29:22;24.13;;;16.57;;
11829;SDS011;5972;42.134;24.718;2022-11-15T06:31:49;30.67;;;20.20;;
11829;SDS011;5972;42.134;24.718;2022-11-15T06:34:16;27.57;;;18.57;;
11829;SDS011;5972;42.134;24.718;2022-11-15T06:36:44;27.87;;;18.33;;
11829;SDS011;5972;42.134;24.718;2022-11-15T06:39:11;31.87;;;18.30;;
11829;SDS011;5972;42.134;24.718;2022-11-15T06:41:37;32.20;;;18.50;;
11829;SDS011;5972;42.134;24.718;2022-11-15T06:44:04;39.00;;;18.70;;
11829;SDS011;5972;42.134;24.718;2022-11-15T06:46:31;31.67;;;18.90;;
11829;SDS011;5972;42.134;24.718;2022-11-15T06:48:58;37.03;;;18.27;;
11829;SDS011;5972;42.134;24.718;2022-11-15T06:51:24;22.87;;;15.43;;
11829;SDS011;5972;42.134;24.718;2022-11-15T06:53:53;23.47;;;16.07;;
11829;SDS011;5972;42.134;24.718;2022-11-15T06:56:20;22.35;;;16.20;;
11829;SDS011;5972;42.134;24.718;2022-11-15T06:58:47;24.08;;;14.60;;
11829;SDS011;5972;42.134;24.718;2022-11-15T07:01:14;24.20;;;14.85;;
11829;SDS011;5972;42.134;24.718;2022-11-15T07:03:41;27.63;;;14.73;;
11829;SDS011;5972;42.134;24.718;2022-11-15T07:06:08;20.63;;;14.20;;
11829;SDS011;5972;42.134;24.718;2022-11-15T07:08:36;20.20;;;13.65;;
11829;SDS011;5972;42.134;24.718;2022-11-15T07:11:05;27.13;;;13.35;;
11829;SDS011;5972;42.134;24.718;2022-11-15T07:13:33;23.33;;;14.43;;
11829;SDS011;5972;42.134;24.718;2022-11-15T07:16:02;24.27;;;12.77;;
11829;SDS011;5972;42.134;24.718;2022-11-15T07:18:30;28.90;;;13.52;;
11829;SDS011;5972;42.134;24.718;2022-11-15T07:21:00;27.05;;;13.82;;
11829;SDS011;5972;42.134;24.718;2022-11-15T07:23:27;18.13;;;12.63;;
11829;SDS011;5972;42.134;24.718;2022-11-15T07:25:55;22.25;;;12.93;;
11829;SDS011;5972;42.134;24.718;2022-11-15T07:28:24;22.85;;;12.52;;
11829;SDS011;5972;42.134;24.718;2022-11-15T07:30:51;19.02;;;12.25;;
11829;SDS011;5972;42.134;24.718;2022-11-15T07:33:18;24.92;;;12.75;;
11829;SDS011;5972;42.134;24.718;2022-11-15T07:35:45;16.88;;;12.48;;
11829;SDS011;5972;42.134;24.718;2022-11-15T07:38:14;18.10;;;13.00;;
11829;SDS011;5972;42.134;24.718;2022-11-15T07:40:44;21.55;;;11.88;;
11829;SDS011;5972;42.134;24.718;2022-11-15T07:43:11;19.23;;;12.25;;
11829;SDS011;5972;42.134;24.718;2022-11-15T07:45:41;24.13;;;13.25;;
11829;SDS011;5972;42.134;24.718;2022-11-15T07:48:11;19.23;;;13.05;;
11829;SDS011;5972;42.134;24.718;2022-11-15T07:50:40;27.83;;;14.15;;
11829;SDS011;5972;42.134;24.718;2022-11-15T07:53:13;19.02;;;13.38;;
11829;SDS011;5972;42.134;24.718;2022-11-15T07:55:40;23.75;;;13.85;;
11829;SDS011;5972;42.134;24.718;2022-11-15T07:58:08;19.33;;;14.00;;
11829;SDS011;5972;42.134;24.718;2022-11-15T08:00:36;22.85;;;14.32;;
11829;SDS011;5972;42.134;24.718;2022-11-15T08:03:05;25.92;;;14.13;;
11829;SDS011;5972;42.134;24.718;2022-11-15T08:05:33;24.73;;;15.23;;
11829;SDS011;5972;42.134;24.718;2022-11-15T08:08:01;29.52;;;15.13;;
11829;SDS011;5972;42.134;24.718;2022-11-15T08:10:29;27.02;;;14.73;;
11829;SDS011;5972;42.134;24.718;2022-11-15T08:12:56;20.88;;;14.38;;
11829;SDS011;5972;42.134;24.718;2022-11-15T08:15:24;21.80;;;14.80;;
11829;SDS011;5972;42.134;24.718;2022-11-15T08:17:53;28.85;;;15.57;;
11829;SDS011;5972;42.134;24.718;2022-11-15T08:20:22;18.48;;;15.30;;
11829;SDS011;5972;42.134;24.718;2022-11-15T08:22:49;24.80;;;15.32;;
11829;SDS011;5972;42.134;24.718;2022-11-15T08:25:16;20.27;;;15.27;;
11829;SDS011;5972;42.134;24.718;2022-11-15T08:27:43;22.45;;;15.75;;
11829;SDS011;5972;42.134;24.718;2022-11-15T08:30:10;22.63;;;14.98;;
11829;SDS011;5972;42.134;24.718;2022-11-15T08:32:38;21.35;;;15.10;;
11829;SDS011;5972;42.134;24.718;2022-11-15T08:35:05;18.90;;;15.15;;
11829;SDS011;5972;42.134;24.718;2022-11-15T08:37:34;18.50;;;14.55;;
11829;SDS011;5972;42.134;24.718;2022-11-15T08:40:01;26.42;;;14.85;;
11829;SDS011;5972;42.134;24.718;2022-11-15T08:42:28;22.35;;;13.90;;
11829;SDS011;5972;42.134;24.718;2022-11-15T08:44:55;17.80;;;13.13;;
11829;SDS011;5972;42.134;24.718;2022-11-15T08:47:22;23.90;;;14.88;;
11829;SDS011;5972;42.134;24.718;2022-11-15T08:49:49;16.08;;;14.07;;
11829;SDS011;5972;42.134;24.718;2022-11-15T08:52:16;20.75;;;15.20;;
11829;SDS011;5972;42.134;24.718;2022-11-15T08:54:44;18.77;;;14.02;;
11829;SDS011;5972;42.134;24.718;2022-11-15T08:57:11;20.05;;;14.55;;
11829;SDS011;5972;42.134;24.718;2022-11-15T08:59:38;19.95;;;13.77;;
11829;SDS011;5972;42.134;24.718;2022-11-15T09:02:05;18.50;;;15.30;;
11829;SDS011;5972;42.134;24.718;2022-11-15T09:04:32;18.08;;;14.70;;
11829;SDS011;5972;42.134;24.718;2022-11-15T09:06:59;18.95;;;15.25;;
11829;SDS011;5972;42.134;24.718;2022-11-15T09:09:25;19.45;;;15.52;;
11829;SDS011;5972;42.134;24.718;2022-11-15T09:11:53;20.33;;;16.23;;
11829;SDS011;5972;42.134;24.718;2022-11-15T09:14:20;18.75;;;15.38;;
11829;SDS011;5972;42.134;24.718;2022-11-15T09:16:47;20.20;;;15.65;;
11829;SDS011;5972;42.134;24.718;2022-11-15T09:19:14;23.35;;;15.95;;
11829;SDS011;5972;42.134;24.718;2022-11-15T09:21:41;17.55;;;15.50;;
11829;SDS011;5972;42.134;24.718;2022-11-15T09:24:07;19.35;;;15.70;;
11829;SDS011;5972;42.134;24.718;2022-11-15T09:26:34;20.02;;;14.88;;
11829;SDS011;5972;42.134;24.718;2022-11-15T09:29:02;20.35;;;14.65;;
11829;SDS011;5972;42.134;24.718;2022-11-15T09:31:29;19.02;;;15.52;;
11829;SDS011;5972;42.134;24.718;2022-11-15T09:33:56;16.63;;;14.93;;
11829;SDS011;5972;42.134;24.718;2022-11-15T09:36:23;17.58;;;14.93;;
11829;SDS011;5972;42.134;24.718;2022-11-15T09:38:50;19.15;;;15.73;;
11829;SDS011;5972;42.134;24.718;2022-11-15T09:41:25;17.98;;;16.08;;
11829;SDS011;5972;42.134;24.718;2022-11-15T09:44:07;18.20;;;15.15;;
11829;SDS011;5972;42.134;24.718;2022-11-15T09:46:57;18.42;;;15.02;;
11829;SDS011;5972;42.134;24.718;2022-11-15T09:49:27;16.95;;;14.88;;
11829;SDS011;5972;42.134;24.718;2022-11-15T09:51:55;18.70;;;15.52;;
11829;SDS011;5972;42.134;24.718;2022-11-15T09:54:26;18.30;;;16.13;;
11829;SDS011;5972;42.134;24.718;2022-11-15T09:56:56;17.17;;;14.90;;
11829;SDS011;5972;42.134;24.718;2022-11-15T09:59:43;20.48;;;14.77;;
11829;SDS011;5972;42.134;24.718;2022-11-15T10:02:23;18.15;;;15.65;;
11829;SDS011;5972;42.134;24.718;2022-11-15T10:05:06;17.15;;;15.02;;
11829;SDS011;5972;42.134;24.718;2022-11-15T10:07:40;16.00;;;14.18;;
11829;SDS011;5972;42.134;24.718;2022-11-15T10:10:15;15.98;;;14.35;;
11829;SDS011;5972;42.134;24.718;2022-11-15T10:12:52;17.33;;;15.48;;
11829;SDS011;5972;42.134;24.718;2022-11-15T10:15:21;17.20;;;15.10;;
11829;SDS011;5972;42.134;24.718;2022-11-15T10:20:37;16.98;;;14.75;;
11829;SDS011;5972;42.134;24.718;2022-11-15T10:23:11;17.05;;;14.85;;
11829;SDS011;5972;42.134;24.718;2022-11-15T10:25:40;17.67;;;14.48;;
11829;SDS011;5972;42.134;24.718;2022-11-15T10:28:09;19.02;;;15.50;;
11829;SDS011;5972;42.134;24.718;2022-11-15T10:30:43;18.70;;;16.10;;
11829;SDS011;5972;42.134;24.718;2022-11-15T10:33:20;19.10;;;16.45;;
11829;SDS011;5972;42.134;24.718;2022-11-15T10:38:51;22.90;;;17.55;;
11829;SDS011;5972;42.134;24.718;2022-11-15T10:41:21;19.20;;;16.38;;
11829;SDS011;5972;42.134;24.718;2022-11-15T10:44:07;17.35;;;15.45;;
11829;SDS011;5972;42.134;24.718;2022-11-15T10:46:39;23.08;;;15.52;;
11829;SDS011;5972;42.134;24.718;2022-11-15T10:49:12;20.92;;;15.93;;
11829;SDS011;5972;42.134;24.718;2022-11-15T10:51:41;19.67;;;16.30;;
11829;SDS011;5972;42.134;24.718;2022-11-15T10:54:11;21.08;;;16.88;;
11829;SDS011;5972;42.134;24.718;2022-11-15T10:56:41;18.42;;;16.30;;
11829;SDS011;5972;42.134;24.718;2022-11-15T10:59:14;18.90;;;16.13;;
11829;SDS011;5972;42.134;24.718;2022-11-15T11:01:47;18.83;;;16.27;;
11829;SDS011;5972;42.134;24.718;2022-11-15T11:04:14;21.40;;;15.90;;
11829;SDS011;5972;42.134;24.718;2022-11-15T11:06:48;20.42;;;17.23;;
11829;SDS011;5972;42.134;24.718;2022-11-15T11:09:27;20.35;;;15.73;;
11829;SDS011;5972;42.134;24.718;2022-11-15T11:11:57;23.42;;;18.05;;
11829;SDS011;5972;42.134;24.718;2022-11-15T11:14:25;22.88;;;18.45;;
11829;SDS011;5972;42.134;24.718;2022-11-15T11:16:55;23.10;;;17.60;;
11829;SDS011;5972;42.134;24.718;2022-11-15T11:19:36;21.60;;;16.65;;
11829;SDS011;5972;42.134;24.718;2022-11-15T11:22:13;22.10;;;18.30;;
11829;SDS011;5972;42.134;24.718;2022-11-15T11:24:47;23.77;;;18.52;;
11829;SDS011;5972;42.134;24.718;2022-11-15T11:27:24;26.27;;;19.52;;
11829;SDS011;5972;42.134;24.718;2022-11-15T11:30:09;23.23;;;17.80;;
11829;SDS011;5972;42.134;24.718;2022-11-15T11:35:37;22.17;;;18.08;;
11829;SDS011;5972;42.134;24.718;2022-11-15T11:38:17;24.75;;;18.65;;
11829;SDS011;5972;42.134;24.718;2022-11-15T11:41:00;25.48;;;18.30;;
11829;SDS011;5972;42.134;24.718;2022-11-15T11:43:34;23.75;;;18.98;;
11829;SDS011;5972;42.134;24.718;2022-11-15T11:46:24;24.23;;;18.77;;
11829;SDS011;5972;42.134;24.718;2022-11-15T11:49:08;23.48;;;20.52;;
11829;SDS011;5972;42.134;24.718;2022-11-15T11:51:36;28.45;;;20.40;;
11829;SDS011;5972;42.134;24.718;2022-11-15T11:54:10;31.70;;;19.95;;
11829;SDS011;5972;42.134;24.718;2022-11-15T11:56:40;28.38;;;21.45;;
11829;SDS011;5972;42.134;24.718;2022-11-15T11:59:10;27.10;;;20.48;;
11829;SDS011;5972;42.134;24.718;2022-11-15T12:01:44;31.65;;;22.42;;
11829;SDS011;5972;42.134;24.718;2022-11-15T12:04:13;29.67;;;21.15;;
11829;SDS011;5972;42.134;24.718;2022-11-15T12:06:46;33.88;;;21.02;;
11829;SDS011;5972;42.134;24.718;2022-11-15T12:09:17;30.95;;;21.88;;
11829;SDS011;5972;42.134;24.718;2022-11-15T12:11:51;26.02;;;20.63;;
11829;SDS011;5972;42.134;24.718;2022-11-15T12:14:26;29.17;;;21.15;;
11829;SDS011;5972;42.134;24.718;2022-11-15T12:16:57;29.20;;;20.48;;
11829;SDS011;5972;42.134;24.718;2022-11-15T12:19:26;29.05;;;21.17;;
11829;SDS011;5972;42.134;24.718;2022-11-15T12:21:56;26.77;;;20.15;;
11829;SDS011;5972;42.134;24.718;2022-11-15T12:24:28;27.83;;;20.08;;
11829;SDS011;5972;42.134;24.718;2022-11-15T12:27:00;27.48;;;20.58;;
11829;SDS011;5972;42.134;24.718;2022-11-15T12:29:32;32.28;;;19.90;;
11829;SDS011;5972;42.134;24.718;2022-11-15T12:32:03;27.63;;;20.70;;
11829;SDS011;5972;42.134;24.718;2022-11-15T12:34:39;27.27;;;19.08;;
11829;SDS011;5972;42.134;24.718;2022-11-15T12:43:00;23.40;;;19.30;;
11829;SDS011;5972;42.134;24.718;2022-11-15T12:45:37;28.20;;;20.30;;
11829;SDS011;5972;42.134;24.718;2022-11-15T12:51:13;23.02;;;18.25;;
11829;SDS011;5972;42.134;24.718;2022-11-15T12:53:40;27.23;;;19.05;;
11829;SDS011;5972;42.134;24.718;2022-11-15T12:58:50;21.48;;;17.65;;
11829;SDS011;5972;42.134;24.718;2022-11-15T13:04:25;27.77;;;18.88;;
11829;SDS011;5972;42.134;24.718;2022-11-15T13:06:55;24.40;;;19.23;;
11829;SDS011;5972;42.134;24.718;2022-11-15T13:18:26;27.05;;;19.27;;
11829;SDS011;5972;42.134;24.718;2022-11-15T13:21:04;24.23;;;19.73;;
11829;SDS011;5972;42.134;24.718;2022-11-15T13:24:03;24.65;;;19.60;;
11829;SDS011;5972;42.134;24.718;2022-11-15T13:26:30;25.80;;;19.63;;
11829;SDS011;5972;42.134;24.718;2022-11-15T13:28:58;23.80;;;19.70;;
11829;SDS011;5972;42.134;24.718;2022-11-15T13:31:27;22.75;;;18.70;;
11829;SDS011;5972;42.134;24.718;2022-11-15T13:33:57;22.42;;;18.13;;
11829;SDS011;5972;42.134;24.718;2022-11-15T13:36:28;23.30;;;19.48;;
11829;SDS011;5972;42.134;24.718;2022-11-15T13:38:59;25.13;;;19.35;;
11829;SDS011;5972;42.134;24.718;2022-11-15T13:41:29;21.98;;;18.23;;
11829;SDS011;5972;42.134;24.718;2022-11-15T13:43:58;24.42;;;18.77;;
11829;SDS011;5972;42.134;24.718;2022-11-15T13:46:26;24.52;;;19.20;;
11829;SDS011;5972;42.134;24.718;2022-11-15T13:48:55;23.35;;;19.10;;
11829;SDS011;5972;42.134;24.718;2022-11-15T13:51:33;24.20;;;19.27;;
11829;SDS011;5972;42.134;24.718;2022-11-15T13:54:08;23.05;;;18.70;;
11829;SDS011;5972;42.134;24.718;2022-11-15T13:56:45;23.50;;;20.20;;
11829;SDS011;5972;42.134;24.718;2022-11-15T13:59:17;26.58;;;20.88;;
11829;SDS011;5972;42.134;24.718;2022-11-15T14:01:51;27.80;;;20.50;;
11829;SDS011;5972;42.134;24.718;2022-11-15T14:06:52;28.45;;;20.95;;
11829;SDS011;5972;42.134;24.718;2022-11-15T14:09:29;29.40;;;22.20;;
11829;SDS011;5972;42.134;24.718;2022-11-15T14:11:59;29.55;;;22.55;;
11829;SDS011;5972;42.134;24.718;2022-11-15T14:14:28;32.15;;;24.02;;
11829;SDS011;5972;42.134;24.718;2022-11-15T14:16:56;31.35;;;24.05;;
11829;SDS011;5972;42.134;24.718;2022-11-15T14:19:37;30.02;;;23.65;;
11829;SDS011;5972;42.134;24.718;2022-11-15T14:25:12;31.08;;;24.05;;
11829;SDS011;5972;42.134;24.718;2022-11-15T14:27:43;96.05;;;67.13;;
11829;SDS011;5972;42.134;24.718;2022-11-15T14:30:14;43.03;;;30.35;;
11829;SDS011;5972;42.134;24.718;2022-11-15T14:32:43;30.88;;;24.38;;
11829;SDS011;5972;42.134;24.718;2022-11-15T14:35:14;32.00;;;23.65;;
11829;SDS011;5972;42.134;24.718;2022-11-15T14:37:43;30.05;;;22.45;;
11829;SDS011;5972;42.134;24.718;2022-11-15T14:40:11;34.92;;;26.73;;
11829;SDS011;5972;42.134;24.718;2022-11-15T14:42:40;33.53;;;21.77;;
11829;SDS011;5972;42.134;24.718;2022-11-15T14:45:10;32.72;;;24.42;;
11829;SDS011;5972;42.134;24.718;2022-11-15T14:47:39;31.75;;;23.30;;
11829;SDS011;5972;42.134;24.718;2022-11-15T14:50:10;29.67;;;22.67;;
11829;SDS011;5972;42.134;24.718;2022-11-15T14:52:38;29.77;;;23.00;;
11829;SDS011;5972;42.134;24.718;2022-11-15T14:55:10;30.73;;;24.13;;
11829;SDS011;5972;42.134;24.718;2022-11-15T14:57:41;30.27;;;22.98;;
11829;SDS011;5972;42.134;24.718;2022-11-15T15:00:10;36.45;;;25.70;;
11829;SDS011;5972;42.134;24.718;2022-11-15T15:02:37;34.58;;;26.30;;
11829;SDS011;5972;42.134;24.718;2022-11-15T15:05:10;33.25;;;23.65;;
11829;SDS011;5972;42.134;24.718;2022-11-15T15:07:40;35.85;;;25.00;;
11829;SDS011;5972;42.134;24.718;2022-11-15T15:10:07;34.75;;;25.40;;
11829;SDS011;5972;42.134;24.718;2022-11-15T15:12:34;41.58;;;27.25;;
11829;SDS011;5972;42.134;24.718;2022-11-15T15:15:01;35.22;;;24.00;;
11829;SDS011;5972;42.134;24.718;2022-11-15T15:17:30;42.28;;;25.80;;
11829;SDS011;5972;42.134;24.718;2022-11-15T15:19:56;35.75;;;24.60;;